createdAt,value
2019-05-06T16:51:48.987Z,144
2019-05-06T16:52:57.963Z,140
2019-05-06T17:00:29.459Z,112
2019-05-06T17:01:34.488Z,108
2019-05-06T17:02:38.065Z,108
2019-05-06T17:03:34.375Z,104
2019-05-06T17:04:38.986Z,104
2019-05-06T17:05:35.552Z,104
2019-05-06T17:06:34.244Z,104
2019-05-06T17:07:34.357Z,100
2019-05-06T17:08:36.396Z,100
2019-05-06T17:09:49.154Z,96
2019-05-06T17:10:53.018Z,96
2019-05-06T17:13:08.538Z,92
2019-05-06T17:19:29.363Z,84
2019-05-06T17:20:32.249Z,84
2019-05-06T17:21:33.396Z,76
2019-05-06T17:22:34.161Z,72
2019-05-06T17:26:48.581Z,660
2019-05-06T17:27:49.440Z,632
2019-05-06T17:28:51.923Z,604
2019-05-06T17:29:50.188Z,576
2019-05-06T17:30:51.559Z,548
2019-05-06T17:31:55.420Z,520
2019-05-06T17:32:55.093Z,500
2019-05-06T17:33:53.784Z,476
2019-05-06T17:34:57.023Z,456
2019-05-06T17:35:53.810Z,440
2019-05-06T17:36:54.215Z,420
2019-05-06T17:37:55.205Z,408
2019-05-06T17:38:59.485Z,396
2019-05-06T17:40:17.189Z,384
2019-05-06T17:41:00.425Z,384
2019-05-06T17:41:59.853Z,380
2019-05-06T17:43:02.514Z,380
2019-05-06T17:44:00.062Z,380
2019-05-06T17:45:00.317Z,372
2019-05-06T17:46:12.814Z,360
2019-05-06T17:47:02.633Z,356
2019-05-06T17:48:03.844Z,340
2019-05-06T17:49:04.101Z,328
2019-05-06T17:50:03.993Z,316
2019-05-06T17:51:03.172Z,304
2019-05-06T17:52:03.600Z,288
2019-05-06T17:53:05.000Z,272
2019-05-06T17:54:04.665Z,248
2019-05-06T17:55:04.954Z,228
2019-05-06T17:56:07.218Z,208
2019-05-06T17:57:12.185Z,184
2019-05-06T17:58:08.286Z,172
2019-05-06T17:59:08.662Z,160
2019-05-06T18:00:09.336Z,148
2019-05-06T18:01:08.822Z,140
2019-05-06T18:02:09.221Z,132
2019-05-06T18:03:10.540Z,128
2019-05-06T18:04:15.877Z,124
2019-05-06T18:05:14.583Z,120
2019-05-06T18:06:22.723Z,116
2019-05-06T18:07:13.548Z,112
2019-05-06T18:08:13.683Z,108
2019-05-06T18:09:14.389Z,104
2019-05-06T18:10:17.485Z,100
2019-05-06T18:11:18.065Z,96
2019-05-06T18:12:17.615Z,92
2019-05-06T18:13:18.353Z,92
2019-05-06T18:14:18.415Z,84
2019-05-06T18:15:18.901Z,80
2019-05-06T18:16:19.310Z,72
2019-05-06T18:17:21.986Z,64
2019-05-06T18:18:21.818Z,56
2019-05-06T18:19:23.246Z,52
2019-05-06T18:20:23.296Z,44
2019-05-06T18:21:23.385Z,44
2019-05-06T18:22:23.876Z,40
2019-05-06T18:23:24.287Z,36
2019-05-06T18:24:24.412Z,32
2019-05-06T18:25:25.397Z,32
2019-05-06T18:26:28.558Z,28
2019-05-06T18:27:28.103Z,20
2019-05-06T18:28:28.544Z,20
2019-05-06T18:29:28.080Z,16
2019-05-06T18:30:42.397Z,20
2019-05-06T18:31:29.819Z,16
2019-05-06T18:32:32.783Z,16
2019-05-06T18:33:32.269Z,16
2019-05-06T18:34:34.337Z,12
2019-05-06T18:35:34.339Z,12
2019-05-06T18:36:33.789Z,16
2019-05-06T18:37:34.407Z,12
2019-05-06T18:38:34.623Z,12
2019-05-06T18:39:35.036Z,8
2019-05-06T18:40:38.818Z,12
2019-05-06T18:41:38.390Z,12
2019-05-06T18:42:39.060Z,8
2019-05-06T18:43:39.154Z,12
2019-05-06T18:44:39.009Z,8
2019-05-06T18:45:39.180Z,8
2019-05-06T18:46:38.867Z,4
2019-05-06T18:47:39.277Z,8
2019-05-06T18:48:43.400Z,4
2019-05-06T18:49:39.560Z,8
2019-05-06T18:50:39.952Z,4
2019-05-06T18:51:40.073Z,4
2019-05-06T18:52:43.213Z,4
2019-05-06T18:53:44.114Z,4
2019-05-06T18:54:44.652Z,0
2019-05-06T18:55:44.047Z,0
2019-05-06T18:56:43.455Z,4
2019-05-06T18:57:43.776Z,4
2019-05-06T18:58:44.434Z,4
2019-05-06T18:59:48.163Z,0
2019-05-06T19:00:45.732Z,0
2019-05-06T19:01:49.040Z,0
2019-05-06T19:02:47.806Z,0
2019-05-06T19:03:48.520Z,0
2019-05-06T19:04:48.930Z,0
2019-05-06T19:05:49.626Z,0
2019-05-06T19:06:54.040Z,0
2019-05-06T19:07:53.051Z,0
2019-05-06T19:08:53.222Z,0
2019-05-06T19:09:53.130Z,0
2019-05-06T19:10:53.257Z,0
2019-05-06T19:11:54.441Z,0
2019-05-06T19:12:53.349Z,0
2019-05-06T19:13:54.035Z,0
2019-05-06T19:14:54.702Z,0
2019-05-06T19:15:55.105Z,0
2019-05-06T19:17:02.873Z,0
2019-05-06T19:17:58.438Z,0
2019-05-06T19:18:58.168Z,0
2019-05-06T19:19:57.905Z,0
2019-05-06T19:20:58.885Z,0
2019-05-06T19:21:59.315Z,0
2019-05-06T19:22:59.427Z,0
2019-05-06T19:24:02.714Z,0
2019-05-06T19:25:02.959Z,0
2019-05-06T19:26:02.952Z,0
2019-05-06T19:27:03.408Z,0
2019-05-06T19:28:04.108Z,0
2019-05-06T19:29:04.567Z,0
2019-05-06T19:30:07.863Z,0
2019-05-06T19:31:05.161Z,0
2019-05-06T19:32:04.300Z,0
2019-05-06T19:33:06.870Z,0
2019-05-06T19:34:05.681Z,0
2019-05-06T19:35:08.478Z,0
2019-05-06T19:36:08.882Z,0
2019-05-06T19:37:07.897Z,0
2019-05-06T19:38:12.472Z,0
2019-05-06T19:39:12.590Z,0
2019-05-06T19:40:08.745Z,0
2019-05-06T19:41:12.803Z,0
2019-05-06T19:42:12.872Z,0
2019-05-06T19:43:09.168Z,0
2019-05-06T19:44:09.580Z,0
2019-05-06T19:45:10.288Z,0
2019-05-06T19:46:12.074Z,0
2019-05-06T19:47:13.495Z,0
2019-05-06T19:48:13.880Z,0
2019-05-06T19:49:13.123Z,0
2019-05-06T19:50:14.109Z,0
2019-05-06T19:51:15.053Z,0
2019-05-06T19:52:15.994Z,0
2019-05-06T19:53:17.317Z,0
2019-05-06T19:54:18.145Z,0
2019-05-06T19:55:17.866Z,0
2019-05-06T19:56:18.126Z,0
2019-05-06T19:57:21.642Z,0
2019-05-06T19:58:18.745Z,0
2019-05-06T19:59:19.275Z,0
2019-05-06T20:00:19.419Z,0
2019-05-06T20:01:19.530Z,0
2019-05-06T20:02:22.468Z,0
2019-05-06T20:03:20.141Z,0
2019-05-06T20:04:22.479Z,0
2019-05-06T20:05:23.013Z,0
2019-05-06T20:06:23.600Z,0
2019-05-06T20:07:26.825Z,0
2019-05-06T20:08:23.735Z,0
2019-05-06T20:09:23.570Z,0
2019-05-06T20:10:23.685Z,0
2019-05-06T20:11:24.107Z,0
2019-05-06T20:12:24.217Z,0
2019-05-06T20:13:29.066Z,0
2019-05-06T20:14:27.757Z,0
2019-05-06T20:15:25.873Z,0
2019-05-06T20:16:28.468Z,0
2019-05-06T20:17:28.082Z,0
2019-05-06T20:18:27.507Z,0
2019-05-06T20:19:42.537Z,0
2019-05-06T20:20:31.708Z,0
2019-05-06T20:21:28.591Z,0
2019-05-06T20:22:29.017Z,0
2019-05-06T20:23:29.128Z,0
2019-05-06T20:24:29.573Z,0
2019-05-06T20:25:29.984Z,0
2019-05-06T20:26:32.594Z,0
2019-05-06T20:27:32.397Z,0
2019-05-06T20:28:33.874Z,0
2019-05-06T20:29:35.935Z,0
2019-05-06T20:30:32.940Z,0
2019-05-06T20:31:33.670Z,0
2019-05-06T20:32:34.079Z,0
2019-05-06T20:33:34.484Z,0
2019-05-06T20:34:37.456Z,0
2019-05-06T20:35:37.570Z,0
2019-05-06T20:36:38.913Z,0
2019-05-06T20:37:38.421Z,0
2019-05-06T20:38:39.080Z,0
2019-05-06T20:39:38.022Z,0
2019-05-06T20:40:39.010Z,0
2019-05-06T20:41:39.127Z,0
2019-05-06T20:42:39.262Z,0
2019-05-06T20:43:39.374Z,0
2019-05-06T20:44:39.771Z,0
2019-05-06T20:45:47.942Z,0
2019-05-06T20:46:40.359Z,0
2019-05-06T20:47:43.135Z,0
2019-05-06T20:48:43.803Z,0
2019-05-06T20:49:44.289Z,0
2019-05-06T20:50:43.312Z,0
2019-05-06T20:51:43.704Z,0
2019-05-06T20:52:44.112Z,0
2019-05-06T20:53:44.501Z,0
2019-05-06T20:54:45.185Z,0
2019-05-06T20:55:49.208Z,0
2019-05-06T20:56:48.217Z,0
2019-05-06T20:57:48.041Z,0
2019-05-06T20:58:48.447Z,0
2019-05-06T20:59:49.093Z,0
2019-05-06T21:00:49.208Z,0
2019-05-06T21:01:49.913Z,0
2019-05-06T21:02:50.403Z,0
2019-05-06T21:03:53.331Z,0
2019-05-06T21:04:54.276Z,0
2019-05-06T21:05:54.521Z,0
2019-05-06T21:06:53.662Z,0
2019-05-06T21:07:54.106Z,0
2019-05-06T21:08:54.222Z,0
2019-05-06T21:09:57.668Z,0
2019-05-06T21:10:58.420Z,0
2019-05-06T21:11:58.279Z,0
2019-05-06T21:12:58.718Z,0
2019-05-06T21:13:58.129Z,0
2019-05-06T21:14:58.527Z,0
2019-05-06T21:15:58.649Z,0
2019-05-06T21:16:59.292Z,0
2019-05-06T21:18:02.088Z,0
2019-05-06T21:19:00.150Z,0
2019-05-06T21:20:02.905Z,0
2019-05-06T21:21:02.044Z,0
2019-05-06T21:22:03.606Z,0
2019-05-06T21:23:03.491Z,0
2019-05-06T21:24:03.392Z,0
2019-05-06T21:25:02.827Z,0
2019-05-06T21:26:03.711Z,0
2019-05-06T21:27:04.145Z,0
2019-05-06T21:28:03.895Z,0
2019-05-06T21:29:04.284Z,0
2019-05-06T21:30:04.551Z,0
2019-05-06T21:31:04.965Z,0
2019-05-06T21:32:08.169Z,0
2019-05-06T21:33:06.575Z,0
2019-05-06T21:34:08.034Z,0
2019-05-06T21:35:08.156Z,0
2019-05-06T21:36:08.656Z,0
2019-05-06T21:37:09.364Z,0
2019-05-06T21:38:12.098Z,0
2019-05-06T21:39:13.104Z,0
2019-05-06T21:40:13.556Z,0
2019-05-06T21:41:12.766Z,0
2019-05-06T21:42:12.746Z,0
2019-05-06T21:43:13.337Z,0
2019-05-06T21:44:13.436Z,0
2019-05-06T21:45:13.917Z,0
2019-05-06T21:46:14.032Z,0
2019-05-06T21:47:14.149Z,0
2019-05-06T21:48:14.266Z,0
2019-05-06T21:49:14.670Z,0
2019-05-06T21:50:17.723Z,0
2019-05-06T21:51:18.223Z,0
2019-05-06T21:52:18.874Z,0
2019-05-06T21:53:20.431Z,0
2019-05-06T21:54:18.192Z,0
2019-05-06T21:55:19.104Z,0
2019-05-06T21:56:18.907Z,0
2019-05-06T21:57:19.034Z,0
2019-05-06T21:58:19.159Z,0
2019-05-06T21:59:19.584Z,0
2019-05-06T22:00:23.361Z,0
2019-05-06T22:01:22.112Z,0
2019-05-06T22:02:23.090Z,0
2019-05-06T22:03:24.489Z,0
2019-05-06T22:04:24.161Z,0
2019-05-06T22:05:24.366Z,0
2019-05-06T22:06:24.526Z,0
2019-05-06T22:07:25.195Z,0
2019-05-06T22:08:29.045Z,0
2019-05-06T22:09:28.046Z,0
2019-05-06T22:10:32.001Z,0
2019-05-06T22:11:29.840Z,0
2019-05-06T22:12:31.843Z,0
2019-05-06T22:13:28.574Z,0
2019-05-06T22:14:29.274Z,0
2019-05-06T22:15:29.678Z,0
2019-05-06T22:16:32.309Z,0
2019-05-06T22:17:33.730Z,0
2019-05-06T22:18:36.391Z,0
2019-05-06T22:19:32.239Z,0
2019-05-06T22:20:34.751Z,0
2019-05-06T22:21:33.839Z,0
2019-05-06T22:22:34.145Z,0
2019-05-06T22:23:34.544Z,0
2019-05-06T22:24:34.989Z,0
2019-05-06T22:25:38.320Z,0
2019-05-06T22:26:38.241Z,0
2019-05-06T22:27:37.657Z,0
2019-05-06T22:28:38.023Z,0
2019-05-06T22:29:38.548Z,0
2019-05-06T22:30:38.470Z,0
2019-05-06T22:31:39.171Z,0
2019-05-06T22:32:39.854Z,0
2019-05-06T22:33:40.263Z,0
2019-05-06T22:34:42.449Z,0
2019-05-06T22:35:43.139Z,0
2019-05-06T22:36:42.946Z,0
2019-05-06T22:37:44.997Z,0
2019-05-06T22:38:44.240Z,0
2019-05-06T22:39:44.895Z,0
2019-05-06T22:40:44.051Z,0
2019-05-06T22:41:44.201Z,0
2019-05-06T22:42:45.187Z,0
2019-05-06T22:43:48.118Z,0
2019-05-06T22:44:48.375Z,0
2019-05-06T22:45:48.323Z,0
2019-05-06T22:46:48.599Z,0
2019-05-06T22:47:48.004Z,0
2019-05-06T22:48:48.881Z,0
2019-05-06T22:49:49.004Z,0
2019-05-06T22:50:49.566Z,0
2019-05-06T22:51:51.947Z,0
2019-05-06T22:52:52.947Z,0
2019-05-06T22:53:53.479Z,0
2019-05-06T22:54:54.018Z,0
2019-05-06T22:55:53.801Z,0
2019-05-06T22:56:54.538Z,0
2019-05-06T22:57:53.831Z,0
2019-05-06T22:58:54.242Z,0
2019-05-06T22:59:54.936Z,0
2019-05-06T23:00:55.692Z,0
2019-05-06T23:02:01.801Z,0
2019-05-06T23:02:58.573Z,0
2019-05-06T23:03:58.631Z,0
2019-05-06T23:04:59.609Z,0
2019-05-06T23:05:59.727Z,0
2019-05-06T23:07:00.114Z,0
2019-05-06T23:08:02.542Z,0
2019-05-06T23:09:03.560Z,0
2019-05-06T23:10:03.395Z,0
2019-05-06T23:11:03.782Z,0
2019-05-06T23:12:04.765Z,0
2019-05-06T23:13:03.897Z,0
2019-05-06T23:14:04.566Z,0
2019-05-06T23:15:04.681Z,0
2019-05-06T23:16:07.658Z,0
2019-05-06T23:17:08.305Z,0
2019-05-06T23:18:08.386Z,0
2019-05-06T23:19:07.912Z,0
2019-05-06T23:20:08.028Z,0
2019-05-06T23:21:08.675Z,0
2019-05-06T23:22:11.994Z,0
2019-05-06T23:23:12.784Z,0
2019-05-06T23:24:10.009Z,0
2019-05-06T23:25:12.839Z,0
2019-05-06T23:26:13.055Z,0
2019-05-06T23:27:13.382Z,0
2019-05-06T23:28:13.784Z,0
2019-05-06T23:29:13.526Z,0
2019-05-06T23:30:14.491Z,0
2019-05-06T23:31:14.279Z,0
2019-05-06T23:32:19.020Z,0
2019-05-06T23:33:19.291Z,0
2019-05-06T23:34:18.320Z,0
2019-05-06T23:35:18.618Z,0
2019-05-06T23:36:17.549Z,0
2019-05-06T23:37:18.405Z,0
2019-05-06T23:38:17.814Z,0
2019-05-06T23:39:18.427Z,0
2019-05-06T23:40:18.536Z,0
2019-05-06T23:41:19.192Z,0
2019-05-06T23:42:19.302Z,0
2019-05-06T23:43:22.153Z,0
2019-05-06T23:44:23.044Z,0
2019-05-06T23:45:23.065Z,0
2019-05-06T23:46:23.060Z,0
2019-05-06T23:47:23.567Z,0
2019-05-06T23:48:22.936Z,0
2019-05-06T23:49:24.225Z,0
2019-05-06T23:50:23.335Z,0
2019-05-06T23:51:24.292Z,0
2019-05-06T23:52:24.680Z,0
2019-05-06T23:53:25.224Z,0
2019-05-06T23:54:27.789Z,0
2019-05-06T23:55:27.519Z,0
2019-05-06T23:56:28.230Z,0
2019-05-06T23:57:32.532Z,0
2019-05-06T23:58:32.161Z,0
2019-05-06T23:59:32.187Z,0
